Vidnoe — UBDU — position and weather

sailwx.info

Track history (hours):
 
Tides and Currents Weather Stations Pressure Air Temp Water Temp Dewpoint Dewpoint Depression Visibility Wind Speed Wind Dir Waves Ship Positions

Vidnoe

Last reported at 2016-Sep-27 14:34 UTC. Time now 2016-Sep-28 08:34 UTC.
Position N 59°43' E 024°00'.

Length 115 m; beam 17 m.

Type: Tanker. MMSI: 273516400.

Date/timePositionNaut miles runAvg speedWind from/ knotsBaromVisibWave heightAir tempDewpointWater temp
2016-Sep-27 14:34N 59°43' E 024°00'4711.3
2016-Sep-27 10:22N 59°54' E 025°32'14110.2
2016-Sep-26 20:33N 59°53' E 030°13'0 0.1
2016-Sep-26 19:32N 59°53' E 030°13'0 0.0
2016-Sep-26 15:32N 59°53' E 030°13'0 0.0
2016-Sep-26 13:32N 59°53' E 030°13'0 0.0
2016-Sep-26 11:32N 59°53' E 030°13'0 0.0
2016-Sep-26 08:29N 59°53' E 030°13'0 0.0
2016-Sep-26 02:32N 59°53' E 030°13'0 0.0
2016-Sep-26 01:29N 59°53' E 030°13'0 0.0
2016-Sep-26 00:32N 59°53' E 030°13'0 0.0
2016-Sep-25 21:29N 59°53' E 030°13'0 0.0
2016-Sep-25 17:29N 59°53' E 030°13'0 0.0
2016-Sep-25 16:29N 59°53' E 030°13'0 0.0
2016-Sep-25 15:32N 59°53' E 030°13'0 0.0
2016-Sep-25 14:32N 59°53' E 030°13'1 0.4
2016-Sep-25 12:32N 59°53' E 030°12'1 0.7
2016-Sep-25 11:32N 59°53' E 030°13'0 0.0
2016-Sep-25 10:32N 59°53' E 030°13'0 0.0
2016-Sep-25 09:32N 59°53' E 030°13'0 0.0
2016-Sep-25 07:32N 59°53' E 030°13'0 0.0
2016-Sep-25 04:32N 59°53' E 030°13'0 0.0
2016-Sep-25 00:32N 59°53' E 030°13'0 0.0
2016-Sep-24 22:32N 59°53' E 030°13'0 0.0
2016-Sep-24 21:32N 59°53' E 030°13'0 0.0
2016-Sep-24 19:29N 59°53' E 030°13'0 0.0
2016-Sep-24 18:32N 59°53' E 030°13'0 0.0
2016-Sep-24 17:29N 59°53' E 030°13'0 0.0
2016-Sep-24 16:32N 59°53' E 030°13'0 0.0
2016-Sep-24 14:32N 59°53' E 030°13'0 0.0
2016-Sep-24 12:32N 59°53' E 030°13'0 0.0
2016-Sep-24 10:32N 59°53' E 030°13'0 0.0
2016-Sep-24 09:32N 59°53' E 030°13'0 0.0
2016-Sep-24 03:32N 59°53' E 030°13'0 0.0
2016-Sep-24 02:32N 59°53' E 030°13'0 0.0
2016-Sep-24 01:32N 59°53' E 030°13'0 0.0
2016-Sep-24 00:32N 59°53' E 030°13'0 0.0
2016-Sep-23 19:32N 59°53' E 030°13'0 0.0
2016-Sep-23 17:32N 59°53' E 030°13'0 0.0
2016-Sep-23 16:32N 59°53' E 030°13'0 0.0
2016-Sep-23 15:32N 59°53' E 030°13'0 0.0
2016-Sep-23 13:29N 59°53' E 030°13'0 0.0
2016-Sep-23 09:26N 59°53' E 030°13'0 0.0
2016-Sep-23 06:32N 59°53' E 030°13'0 0.0
2016-Sep-23 04:32N 59°53' E 030°13'0 0.0
2016-Sep-23 03:32N 59°53' E 030°13'0 0.0
2016-Sep-23 02:32N 59°53' E 030°13'0 0.0
2016-Sep-23 01:32N 59°53' E 030°13'0 0.0
2016-Sep-23 00:32N 59°53' E 030°13'0 0.0
2016-Sep-22 23:32N 59°53' E 030°13'0 0.0
2016-Sep-22 20:32N 59°53' E 030°13'0 0.0
2016-Sep-22 12:31N 59°53' E 030°13'4 0.5
2016-Sep-22 04:33N 59°54' E 030°05'1111.2
2016-Sep-22 03:33N 59°59' E 029°45'37 3.3
2016-Sep-21 16:33N 60°02' E 028°32'113 3.0
2016-Sep-20 02:27N 59°33' E 024°56'4 0.6
2016-Sep-19 19:26N 59°35' E 024°49'0 0.0
2016-Sep-19 18:20N 59°35' E 024°49'0 0.0
2016-Sep-19 14:08N 59°35' E 024°49'0 0.0
2016-Sep-19 12:26N 59°35' E 024°49'0 0.0
2016-Sep-19 11:14N 59°35' E 024°49'0 0.0
2016-Sep-19 09:32N 59°35' E 024°49'0 0.0
2016-Sep-19 07:32N 59°35' E 024°49'0 0.0
2016-Sep-19 06:32N 59°35' E 024°49'4 1.3
2016-Sep-19 03:34N 59°39' E 024°49'9 9.3
2016-Sep-19 02:32N 59°45' E 025°03'22 9.4
2016-Sep-19 00:15N 59°55' E 025°41'5211.0
2016-Sep-18 19:30N 60°06' E 027°23'32 8.1
2016-Sep-18 15:33N 60°04' E 028°27'8 7.8
2016-Sep-18 14:33N 60°03' E 028°43'34 8.5
2016-Sep-18 10:33N 59°57' E 029°50'1010.3
2016-Sep-18 09:33N 59°54' E 030°09'2 0.3
2016-Sep-18 02:32N 59°53' E 030°13'0 0.0
2016-Sep-18 01:32N 59°53' E 030°13'0 0.0
2016-Sep-18 00:32N 59°53' E 030°13'0 0.0
2016-Sep-17 22:32N 59°53' E 030°13'0 0.0
2016-Sep-17 21:32N 59°53' E 030°13'0 0.0
2016-Sep-17 20:32N 59°53' E 030°13'0 0.0
2016-Sep-17 19:14N 59°53' E 030°13'  
Track history (hours):
 
Tides and Currents Weather Stations Pressure Air Temp Water Temp Dewpoint Dewpoint Depression Visibility Wind Speed Wind Dir Waves Ship Positions

Vidnoe

Last reported at 2016-Sep-27 14:34 UTC. Time now 2016-Sep-28 08:34 UTC.
Position N 59°43' E 024°00'.

Length 115 m; beam 17 m.

Type: Tanker. MMSI: 273516400.

Date/timePositionNaut miles runAvg speedWind from/ knotsBaromVisibWave heightAir tempDewpointWater temp
2016-Sep-27 14:34N 59°43' E 024°00'4711.3
2016-Sep-27 10:22N 59°54' E 025°32'14110.2
2016-Sep-26 20:33N 59°53' E 030°13'0 0.1
2016-Sep-26 19:32N 59°53' E 030°13'0 0.0
2016-Sep-26 15:32N 59°53' E 030°13'0 0.0
2016-Sep-26 13:32N 59°53' E 030°13'0 0.0
2016-Sep-26 11:32N 59°53' E 030°13'0 0.0
2016-Sep-26 08:29N 59°53' E 030°13'0 0.0
2016-Sep-26 02:32N 59°53' E 030°13'0 0.0
2016-Sep-26 01:29N 59°53' E 030°13'0 0.0
2016-Sep-26 00:32N 59°53' E 030°13'0 0.0
2016-Sep-25 21:29N 59°53' E 030°13'0 0.0
2016-Sep-25 17:29N 59°53' E 030°13'0 0.0
2016-Sep-25 16:29N 59°53' E 030°13'0 0.0
2016-Sep-25 15:32N 59°53' E 030°13'0 0.0
2016-Sep-25 14:32N 59°53' E 030°13'1 0.4
2016-Sep-25 12:32N 59°53' E 030°12'1 0.7
2016-Sep-25 11:32N 59°53' E 030°13'0 0.0
2016-Sep-25 10:32N 59°53' E 030°13'0 0.0
2016-Sep-25 09:32N 59°53' E 030°13'0 0.0
2016-Sep-25 07:32N 59°53' E 030°13'0 0.0
2016-Sep-25 04:32N 59°53' E 030°13'0 0.0
2016-Sep-25 00:32N 59°53' E 030°13'0 0.0
2016-Sep-24 22:32N 59°53' E 030°13'0 0.0
2016-Sep-24 21:32N 59°53' E 030°13'0 0.0
2016-Sep-24 19:29N 59°53' E 030°13'0 0.0
2016-Sep-24 18:32N 59°53' E 030°13'0 0.0
2016-Sep-24 17:29N 59°53' E 030°13'0 0.0
2016-Sep-24 16:32N 59°53' E 030°13'0 0.0
2016-Sep-24 14:32N 59°53' E 030°13'0 0.0
2016-Sep-24 12:32N 59°53' E 030°13'0 0.0
2016-Sep-24 10:32N 59°53' E 030°13'0 0.0
2016-Sep-24 09:32N 59°53' E 030°13'0 0.0
2016-Sep-24 03:32N 59°53' E 030°13'0 0.0
2016-Sep-24 02:32N 59°53' E 030°13'0 0.0
2016-Sep-24 01:32N 59°53' E 030°13'0 0.0
2016-Sep-24 00:32N 59°53' E 030°13'0 0.0
2016-Sep-23 19:32N 59°53' E 030°13'0 0.0
2016-Sep-23 17:32N 59°53' E 030°13'0 0.0
2016-Sep-23 16:32N 59°53' E 030°13'0 0.0
2016-Sep-23 15:32N 59°53' E 030°13'0 0.0
2016-Sep-23 13:29N 59°53' E 030°13'0 0.0
2016-Sep-23 09:26N 59°53' E 030°13'0 0.0
2016-Sep-23 06:32N 59°53' E 030°13'0 0.0
2016-Sep-23 04:32N 59°53' E 030°13'0 0.0
2016-Sep-23 03:32N 59°53' E 030°13'0 0.0
2016-Sep-23 02:32N 59°53' E 030°13'0 0.0
2016-Sep-23 01:32N 59°53' E 030°13'0 0.0
2016-Sep-23 00:32N 59°53' E 030°13'0 0.0
2016-Sep-22 23:32N 59°53' E 030°13'0 0.0
2016-Sep-22 20:32N 59°53' E 030°13'0 0.0
2016-Sep-22 12:31N 59°53' E 030°13'4 0.5
2016-Sep-22 04:33N 59°54' E 030°05'1111.2
2016-Sep-22 03:33N 59°59' E 029°45'37 3.3
2016-Sep-21 16:33N 60°02' E 028°32'113 3.0
2016-Sep-20 02:27N 59°33' E 024°56'4 0.6
2016-Sep-19 19:26N 59°35' E 024°49'0 0.0
2016-Sep-19 18:20N 59°35' E 024°49'0 0.0
2016-Sep-19 14:08N 59°35' E 024°49'0 0.0
2016-Sep-19 12:26N 59°35' E 024°49'0 0.0
2016-Sep-19 11:14N 59°35' E 024°49'0 0.0
2016-Sep-19 09:32N 59°35' E 024°49'0 0.0
2016-Sep-19 07:32N 59°35' E 024°49'0 0.0
2016-Sep-19 06:32N 59°35' E 024°49'4 1.3
2016-Sep-19 03:34N 59°39' E 024°49'9 9.3
2016-Sep-19 02:32N 59°45' E 025°03'22 9.4
2016-Sep-19 00:15N 59°55' E 025°41'5211.0
2016-Sep-18 19:30N 60°06' E 027°23'32 8.1
2016-Sep-18 15:33N 60°04' E 028°27'8 7.8
2016-Sep-18 14:33N 60°03' E 028°43'34 8.5
2016-Sep-18 10:33N 59°57' E 029°50'1010.3
2016-Sep-18 09:33N 59°54' E 030°09'2 0.3
2016-Sep-18 02:32N 59°53' E 030°13'0 0.0
2016-Sep-18 01:32N 59°53' E 030°13'0 0.0
2016-Sep-18 00:32N 59°53' E 030°13'0 0.0
2016-Sep-17 22:32N 59°53' E 030°13'0 0.0
2016-Sep-17 21:32N 59°53' E 030°13'0 0.0
2016-Sep-17 20:32N 59°53' E 030°13'0 0.0
2016-Sep-17 19:14N 59°53' E 030°13'  

Dump ship's entire track history